Time;durP1;ratioP1;P1;durP2;ratioP2;P2;SDS_P1;SDS_P2;PMS_P1;PMS_P2;Temp;Humidity;BMP_temperature;BMP_pressure;BME280_temperature;BME280_humidity;BME280_pressure;Samples;Min_cycle;Max_cycle;Signal;HPM_P1;HPM_P2
2023/10/28 00:02:24;;;;;;;10.13;4.40;;;;;;;11.84;100.00;99388.56;5328978;27;20117;-72
2023/10/28 00:04:58;;;;;;;11.00;4.20;;;;;;;11.85;100.00;99391.00;5335247;27;20041;-72
2023/10/28 00:07:30;;;;;;;10.57;4.20;;;;;;;11.86;100.00;99389.22;5335924;27;20404;-72
2023/10/28 00:10:07;;;;;;;8.40;3.42;;;;;;;11.94;100.00;99397.03;5336094;27;20106;-73
2023/10/28 00:12:40;;;;;;;11.32;3.95;;;;;;;11.87;100.00;99399.53;5333958;27;20039;-72
2023/10/28 00:15:13;;;;;;;8.32;3.50;;;;;;;11.94;100.00;99397.03;5336757;27;20031;-72
2023/10/28 00:17:50;;;;;;;14.55;4.60;;;;;;;11.92;100.00;99391.94;5335892;27;20468;-73
2023/10/28 00:20:22;;;;;;;9.63;3.72;;;;;;;11.95;100.00;99395.22;5335841;28;20034;-73
2023/10/28 00:22:54;;;;;;;10.80;3.90;;;;;;;11.95;100.00;99390.78;5334389;28;20028;-73
2023/10/28 00:25:27;;;;;;;11.38;3.40;;;;;;;11.97;100.00;99386.19;5337851;28;20030;-72
2023/10/28 00:27:59;;;;;;;14.13;3.95;;;;;;;11.95;100.00;99382.91;5333264;28;20031;-73
2023/10/28 00:30:31;;;;;;;7.20;3.33;;;;;;;12.02;100.00;99390.91;5326631;28;20468;-72
2023/10/28 00:33:03;;;;;;;11.38;3.60;;;;;;;12.04;100.00;99383.66;5334600;28;20381;-73
2023/10/28 00:35:36;;;;;;;8.50;3.30;;;;;;;12.05;100.00;99386.13;5336100;28;20084;-73
2023/10/28 00:38:08;;;;;;;10.32;3.65;;;;;;;12.08;100.00;99391.00;5336203;28;20054;-72
2023/10/28 00:40:42;;;;;;;11.88;3.05;;;;;;;12.10;100.00;99388.22;5337176;28;20023;-73
2023/10/28 00:43:14;;;;;;;6.80;2.85;;;;;;;12.08;100.00;99388.38;5336258;28;20042;-72
2023/10/28 00:45:46;;;;;;;7.00;3.35;;;;;;;12.10;100.00;99391.66;5336106;28;20050;-72
2023/10/28 00:48:18;;;;;;;8.57;3.05;;;;;;;12.11;100.00;99398.53;5335974;28;20045;-73
2023/10/28 00:50:50;;;;;;;8.93;3.13;;;;;;;12.16;100.00;99390.97;5332878;28;20035;-72
2023/10/28 00:53:24;;;;;;;8.32;2.72;;;;;;;12.14;100.00;99386.88;5335835;28;20043;-72
2023/10/28 00:55:56;;;;;;;7.50;2.28;;;;;;;12.17;100.00;99391.78;5334497;28;20031;-73
2023/10/28 00:58:30;;;;;;;7.88;2.80;;;;;;;12.19;100.00;99389.78;5336092;28;20388;-72
2023/10/28 01:01:02;;;;;;;10.20;3.15;;;;;;;12.16;100.00;99387.53;5334180;28;20020;-72
2023/10/28 01:03:34;;;;;;;9.38;2.53;;;;;;;12.23;100.00;99387.63;5336002;28;20039;-73
2023/10/28 01:06:09;;;;;;;8.15;3.10;;;;;;;12.21;100.00;99393.06;5335018;28;20026;-72
2023/10/28 01:08:41;;;;;;;7.55;2.60;;;;;;;12.23;100.00;99385.00;5335570;28;20042;-72
2023/10/28 01:11:14;;;;;;;8.73;2.60;;;;;;;12.29;100.00;99400.88;5335731;28;20097;-72
2023/10/28 01:13:46;;;;;;;6.10;1.92;;;;;;;12.30;100.00;99394.63;5334839;28;20031;-72
2023/10/28 01:16:18;;;;;;;5.82;2.60;;;;;;;12.28;100.00;99391.38;5336115;28;20110;-72
2023/10/28 01:18:56;;;;;;;5.03;2.00;;;;;;;12.43;100.00;99396.66;5334603;28;20519;-73
2023/10/28 01:21:28;;;;;;;5.32;2.05;;;;;;;12.30;100.00;99397.25;5334899;28;20036;-72
2023/10/28 01:24:00;;;;;;;5.32;2.00;;;;;;;12.30;100.00;99392.00;5320010;27;20119;-73
2023/10/28 01:26:32;;;;;;;8.13;2.28;;;;;;;12.30;100.00;99389.38;5339024;27;20528;-73
2023/10/28 01:29:03;;;;;;;6.47;2.15;;;;;;;12.31;100.00;99396.28;5338345;27;20476;-72
2023/10/28 01:31:35;;;;;;;4.22;1.77;;;;;;;12.32;100.00;99391.84;5337922;27;20498;-73
2023/10/28 01:34:08;;;;;;;6.05;2.05;;;;;;;12.33;100.00;99391.66;5339430;27;20461;-73
2023/10/28 01:36:42;;;;;;;7.57;1.90;;;;;;;12.34;100.00;99384.56;5339893;27;20027;-73
2023/10/28 01:39:15;;;;;;;5.55;1.85;;;;;;;12.34;100.00;99393.28;5340185;27;20286;-72
2023/10/28 01:41:47;;;;;;;6.78;2.65;;;;;;;12.37;100.00;99395.53;5316654;27;20370;-72
2023/10/28 01:44:19;;;;;;;4.68;1.65;;;;;;;12.34;100.00;99395.09;5338929;27;20539;-72
2023/10/28 01:46:51;;;;;;;5.57;2.00;;;;;;;12.36;100.00;99385.22;5318204;27;20499;-73
2023/10/28 01:49:23;;;;;;;6.70;1.90;;;;;;;12.33;100.00;99396.91;5337777;27;20411;-72
2023/10/28 01:51:55;;;;;;;4.88;1.50;;;;;;;12.37;100.00;99392.09;5330142;27;20051;-73
2023/10/28 01:54:26;;;;;;;5.40;1.80;;;;;;;12.34;100.00;99389.84;5335634;27;20141;-72
2023/10/28 01:57:00;;;;;;;3.05;1.55;;;;;;;12.32;100.00;99392.66;5336388;27;20103;-73
2023/10/28 01:59:32;;;;;;;;;;;;;;;13.01;100.00;99391.66;5339326;27;20038;-73
2023/10/28 02:02:05;;;;;;;3.40;1.30;;;;;;;12.37;100.00;99392.91;5334610;27;19926;-73
2023/10/28 02:04:36;;;;;;;5.50;1.47;;;;;;;12.40;100.00;99389.13;5336864;27;20514;-73
2023/10/28 02:07:09;;;;;;;3.78;1.50;;;;;;;12.36;100.00;99379.97;5337901;27;20027;-73
2023/10/28 02:09:41;;;;;;;3.15;1.63;;;;;;;12.37;100.00;99381.59;5339202;27;20024;-73
2023/10/28 02:12:14;;;;;;;6.22;1.50;;;;;;;12.34;100.00;99369.63;5319139;27;20129;-73
2023/10/28 02:14:46;;;;;;;4.03;1.60;;;;;;;12.30;100.00;99368.34;5339764;27;20027;-73
2023/10/28 02:17:19;;;;;;;6.97;2.10;;;;;;;12.35;100.00;99373.91;5339441;27;20027;-72
2023/10/28 02:19:50;;;;;;;6.30;1.83;;;;;;;12.37;100.00;99381.59;5330941;27;20484;-73
2023/10/28 02:22:22;;;;;;;2.75;1.55;;;;;;;12.32;100.00;99374.25;5337728;27;20178;-72
2023/10/28 02:24:54;;;;;;;6.63;1.73;;;;;;;12.33;100.00;99381.13;5340144;27;20034;-73
2023/10/28 02:27:26;;;;;;;7.20;2.08;;;;;;;12.33;100.00;99373.25;5337938;27;20137;-73
2023/10/28 02:29:58;;;;;;;5.22;1.48;;;;;;;12.33;100.00;99375.06;5337542;27;20091;-72
2023/10/28 02:32:30;;;;;;;3.42;1.42;;;;;;;12.33;100.00;99369.81;5338558;27;20045;-73
2023/10/28 02:35:03;;;;;;;5.20;1.80;;;;;;;12.24;100.00;99382.22;5339194;27;20031;-73
2023/10/28 02:37:34;;;;;;;4.97;2.03;;;;;;;12.37;100.00;99379.78;5337146;27;20484;-72
2023/10/28 02:40:08;;;;;;;4.40;1.45;;;;;;;12.23;100.00;99377.13;5337254;27;20039;-72
2023/10/28 02:42:41;;;;;;;3.10;1.40;;;;;;;12.24;100.00;99382.22;5337655;27;20346;-72
2023/10/28 02:45:14;;;;;;;4.72;1.88;;;;;;;12.28;100.00;99385.31;5337941;27;20388;-72
2023/10/28 02:47:46;;;;;;;4.22;1.38;;;;;;;12.21;100.00;99385.19;5328967;27;20034;-73
2023/10/28 02:50:19;;;;;;;2.50;1.23;;;;;;;12.20;100.00;99382.72;5337819;27;20035;-72
2023/10/28 02:52:50;;;;;;;4.53;2.15;;;;;;;12.21;100.00;99385.19;5337677;27;20035;-72
2023/10/28 02:55:22;;;;;;;3.40;1.50;;;;;;;12.18;100.00;99388.97;5338876;27;20153;-73
2023/10/28 02:57:54;;;;;;;4.82;1.30;;;;;;;12.16;100.00;99380.47;5338533;27;20046;-73
2023/10/28 03:00:27;;;;;;;4.68;1.40;;;;;;;12.15;100.00;99384.06;5338281;27;20110;-72
2023/10/28 03:02:59;;;;;;;2.78;1.27;;;;;;;12.17;100.00;99384.72;5337459;27;20028;-73
2023/10/28 03:05:32;;;;;;;3.28;1.77;;;;;;;12.15;100.00;99393.75;5338843;27;20113;-72
2023/10/28 03:08:04;;;;;;;3.58;2.00;;;;;;;12.15;100.00;99396.38;5336760;27;20023;-73
2023/10/28 03:10:36;;;;;;;3.05;2.40;;;;;;;12.14;100.00;99389.50;5337770;27;20038;-73
2023/10/28 03:13:07;;;;;;;2.60;1.73;;;;;;;12.12;100.00;99394.09;5336992;27;20468;-73
2023/10/28 03:15:39;;;;;;;3.47;2.20;;;;;;;12.09;100.00;99384.78;5328066;27;20035;-72
2023/10/28 03:18:11;;;;;;;4.88;1.90;;;;;;;12.06;100.00;99389.56;5338527;27;20023;-73
2023/10/28 03:20:43;;;;;;;5.72;2.00;;;;;;;12.07;100.00;99386.75;5336964;27;20037;-73
2023/10/28 03:23:15;;;;;;;3.10;1.85;;;;;;;12.04;100.00;99389.72;5339070;27;20031;-72
2023/10/28 03:25:47;;;;;;;3.53;1.90;;;;;;;12.00;100.00;99382.38;5336926;27;20369;-73
2023/10/28 03:28:19;;;;;;;4.43;1.75;;;;;;;11.97;100.00;99399.31;5337691;27;20118;-72
2023/10/28 03:30:51;;;;;;;3.65;1.60;;;;;;;11.95;100.00;99393.41;5337470;27;20027;-72
2023/10/28 03:33:23;;;;;;;4.05;1.85;;;;;;;11.94;100.00;99389.16;5337966;27;20026;-73
2023/10/28 03:35:57;;;;;;;3.80;1.40;;;;;;;12.00;100.00;99387.63;5335788;27;20080;-72
2023/10/28 03:38:29;;;;;;;4.40;1.70;;;;;;;11.91;100.00;99390.31;5336867;27;20400;-72
2023/10/28 03:41:08;;;;;;;4.63;1.80;;;;;;;12.01;100.00;99386.63;5328111;27;20036;-73
2023/10/28 03:43:43;;;;;;;4.43;1.48;;;;;;;11.87;100.00;99389.03;5309874;27;20050;-73
2023/10/28 03:46:18;;;;;;;4.65;1.38;;;;;;;11.85;100.00;99385.75;5336928;27;20042;-72
2023/10/28 03:48:51;;;;;;;4.50;1.73;;;;;;;11.85;100.00;99379.69;5335963;27;21137;-72
2023/10/28 03:51:22;;;;;;;4.65;1.90;;;;;;;11.88;100.00;99387.22;5337466;27;20050;-73
2023/10/28 03:53:54;;;;;;;4.65;1.90;;;;;;;11.86;100.00;99384.78;5335676;27;20035;-72
2023/10/28 03:56:26;;;;;;;3.42;1.65;;;;;;;11.85;100.00;99380.50;5337210;27;20023;-73
2023/10/28 03:59:00;;;;;;;3.17;1.50;;;;;;;11.85;100.00;99388.38;5336853;27;20027;-73
2023/10/28 04:01:31;;;;;;;;;;;;;;;12.58;100.00;99383.56;5336082;27;20023;-72
2023/10/28 04:04:04;;;;;;;4.03;1.60;;;;;;;11.94;100.00;99386.53;5336407;27;19911;-72
2023/10/28 04:06:36;;;;;;;3.53;1.60;;;;;;;11.96;100.00;99383.72;5338551;27;20031;-72
2023/10/28 04:09:07;;;;;;;4.97;2.00;;;;;;;11.90;100.00;99388.69;5328327;27;20303;-72
2023/10/28 04:11:40;;;;;;;3.72;1.60;;;;;;;11.88;100.00;99376.72;5337066;27;20380;-73
2023/10/28 04:14:12;;;;;;;4.45;2.00;;;;;;;11.92;100.00;99378.00;5336647;27;20031;-72
2023/10/28 04:16:44;;;;;;;4.65;1.70;;;;;;;11.87;100.00;99373.28;5335637;27;20388;-72
2023/10/28 04:19:15;;;;;;;3.33;1.23;;;;;;;11.89;100.00;99376.56;5333320;27;20027;-73
2023/10/28 04:21:47;;;;;;;4.32;1.67;;;;;;;11.88;100.00;99374.09;5336312;27;20106;-72
2023/10/28 04:24:19;;;;;;;5.25;1.98;;;;;;;11.89;100.00;99365.22;5337261;27;20037;-73
2023/10/28 04:26:51;;;;;;;4.55;1.58;;;;;;;11.86;100.00;99362.97;5336015;28;20036;-72
2023/10/28 04:29:23;;;;;;;4.25;1.65;;;;;;;11.95;100.00;99363.72;5334506;27;20559;-73
2023/10/28 04:31:55;;;;;;;4.65;1.45;;;;;;;11.93;100.00;99359.47;5337755;28;20494;-72
2023/10/28 04:34:27;;;;;;;4.27;1.43;;;;;;;11.99;100.00;99370.25;5337592;28;20408;-73
2023/10/28 04:36:59;;;;;;;3.60;1.75;;;;;;;11.93;100.00;99362.09;5325923;28;20122;-73
2023/10/28 04:39:31;;;;;;;3.80;1.65;;;;;;;11.90;100.00;99351.13;5336805;28;20106;-72
2023/10/28 04:42:05;;;;;;;3.38;1.40;;;;;;;11.96;100.00;99362.72;5337862;28;20118;-73
2023/10/28 04:44:36;;;;;;;3.03;1.42;;;;;;;11.97;100.00;99366.97;5335015;28;20049;-73
2023/10/28 04:47:08;;;;;;;4.60;1.48;;;;;;;11.99;100.00;99359.75;5335652;28;20410;-73
2023/10/28 04:49:41;;;;;;;3.17;1.80;;;;;;;11.98;100.00;99356.31;5335950;28;20031;-73
2023/10/28 04:52:13;;;;;;;3.33;1.67;;;;;;;12.02;100.00;99356.78;5336086;28;20031;-72
2023/10/28 04:54:45;;;;;;;4.70;1.85;;;;;;;12.01;100.00;99361.22;5336794;28;20388;-73
2023/10/28 04:57:17;;;;;;;4.28;1.38;;;;;;;12.01;100.00;99357.75;5335591;28;20030;-73
2023/10/28 04:59:49;;;;;;;4.78;1.67;;;;;;;11.98;100.00;99352.88;5338393;27;20114;-72
2023/10/28 05:02:22;;;;;;;5.38;1.90;;;;;;;12.04;100.00;99350.34;5340717;27;20019;-73
2023/10/28 05:04:54;;;;;;;4.50;1.50;;;;;;;12.03;100.00;99346.09;5332199;27;20409;-72
2023/10/28 05:07:26;;;;;;;3.53;1.55;;;;;;;12.02;100.00;99346.28;5340099;27;20027;-73
2023/10/28 05:09:58;;;;;;;4.35;2.13;;;;;;;12.00;100.00;99335.13;5339344;27;20027;-73
2023/10/28 05:12:32;;;;;;;4.95;1.40;;;;;;;11.97;100.00;99335.47;5337454;27;20034;-73
2023/10/28 05:15:06;;;;;;;4.38;1.33;;;;;;;12.03;100.00;99334.78;5339210;27;20046;-73
2023/10/28 05:17:38;;;;;;;4.50;2.15;;;;;;;12.04;100.00;99339.03;5340942;27;20714;-72
2023/10/28 05:20:10;;;;;;;2.92;1.15;;;;;;;12.06;100.00;99327.38;5338481;27;20023;-73
2023/10/28 05:22:42;;;;;;;5.47;1.67;;;;;;;12.05;100.00;99333.63;5340826;27;20046;-73
2023/10/28 05:25:14;;;;;;;6.25;1.20;;;;;;;12.00;100.00;99345.63;5340317;27;20022;-73
2023/10/28 05:27:46;;;;;;;4.88;1.40;;;;;;;12.03;100.00;99345.28;5340463;27;20403;-73
2023/10/28 05:30:18;;;;;;;6.72;1.70;;;;;;;12.05;100.00;99352.00;5321877;27;20113;-72
2023/10/28 05:32:50;;;;;;;2.70;1.48;;;;;;;12.04;100.00;99352.16;5337032;27;20050;-73
2023/10/28 05:35:22;;;;;;;4.35;1.33;;;;;;;12.06;100.00;99352.81;5339014;27;20038;-73
2023/10/28 05:37:54;;;;;;;4.75;1.52;;;;;;;12.04;100.00;99350.34;5339098;27;20473;-73
2023/10/28 05:40:26;;;;;;;6.10;1.85;;;;;;;12.04;100.00;99352.97;5340126;27;20129;-72
2023/10/28 05:42:57;;;;;;;5.03;1.30;;;;;;;11.98;100.00;99343.19;5340668;27;20060;-72
2023/10/28 05:45:29;;;;;;;5.13;1.65;;;;;;;12.01;100.00;99342.84;5340634;27;20117;-72
2023/10/28 05:48:01;;;;;;;4.38;1.50;;;;;;;12.01;100.00;99347.25;5339170;27;20106;-72
2023/10/28 05:50:33;;;;;;;5.40;1.90;;;;;;;11.99;100.00;99351.88;5340026;27;20015;-72
2023/10/28 05:53:05;;;;;;;4.05;1.88;;;;;;;11.97;100.00;99353.84;5338132;27;20130;-73
2023/10/28 05:55:37;;;;;;;3.08;1.38;;;;;;;11.96;100.00;99360.09;5339687;27;20109;-73
2023/10/28 05:58:09;;;;;;;3.30;1.23;;;;;;;11.91;100.00;99358.81;5338805;27;20488;-73
2023/10/28 06:00:44;;;;;;;6.50;1.60;;;;;;;11.93;100.00;99366.50;5338841;27;20105;-73
2023/10/28 06:03:16;;;;;;;3.80;1.33;;;;;;;11.93;100.00;99361.25;5339514;27;20391;-72
2023/10/28 06:05:47;;;;;;;2.60;1.20;;;;;;;11.92;100.00;99364.88;5339028;27;20118;-72
2023/10/28 06:08:19;;;;;;;4.50;1.58;;;;;;;11.94;100.00;99365.53;5339364;27;20114;-72
2023/10/28 06:10:51;;;;;;;4.22;1.23;;;;;;;12.01;100.00;99370.88;5335224;27;20106;-74
2023/10/28 06:13:23;;;;;;;4.07;1.60;;;;;;;11.98;100.00;99366.81;5337620;27;20033;-73
2023/10/28 06:15:55;;;;;;;5.25;1.77;;;;;;;12.00;100.00;99370.06;5335609;27;20050;-72
2023/10/28 06:18:27;;;;;;;4.97;1.42;;;;;;;12.01;100.00;99368.25;5337948;27;20476;-73
2023/10/28 06:21:00;;;;;;;3.75;1.40;;;;;;;12.02;100.00;99375.16;5335766;27;20409;-72
2023/10/28 06:23:32;;;;;;;5.80;1.83;;;;;;;12.01;100.00;99363.84;5326869;27;20034;-73
2023/10/28 06:26:04;;;;;;;4.25;1.77;;;;;;;12.04;100.00;99378.41;5333761;27;20034;-72
2023/10/28 06:28:37;;;;;;;5.10;1.52;;;;;;;12.02;100.00;99375.16;5338012;27;20035;-72
2023/10/28 06:31:08;;;;;;;5.13;1.80;;;;;;;12.07;100.00;99376.25;5336750;27;20038;-72
2023/10/28 06:33:40;;;;;;;7.60;2.15;;;;;;;12.11;100.00;99380.16;5337597;27;20465;-72
2023/10/28 06:36:12;;;;;;;3.33;1.25;;;;;;;12.12;100.00;99380.97;5337807;27;20019;-72
2023/10/28 06:38:44;;;;;;;4.57;1.63;;;;;;;12.11;100.00;99384.59;5336846;27;20122;-73
2023/10/28 06:41:16;;;;;;;3.25;1.23;;;;;;;12.14;100.00;99379.81;5337771;27;20042;-72
2023/10/28 06:43:48;;;;;;;3.30;1.45;;;;;;;12.14;100.00;99374.56;5336929;27;20114;-72
2023/10/28 06:46:20;;;;;;;5.32;1.50;;;;;;;12.14;100.00;99376.38;5340117;27;20034;-72
2023/10/28 06:48:52;;;;;;;6.78;1.88;;;;;;;12.15;100.00;99372.75;5338011;27;20081;-72
2023/10/28 06:51:24;;;;;;;4.72;1.58;;;;;;;12.14;100.00;99371.13;5328873;27;20143;-73
2023/10/28 06:53:56;;;;;;;5.15;1.60;;;;;;;12.16;100.00;99377.03;5338080;27;20039;-72
2023/10/28 06:56:28;;;;;;;5.03;1.52;;;;;;;12.17;100.00;99368.16;5336722;27;20023;-72
2023/10/28 06:59:01;;;;;;;3.80;1.35;;;;;;;12.26;100.00;99376.78;5335151;27;20100;-72
2023/10/28 07:01:34;;;;;;;4.83;1.37;;;;;;;12.24;100.00;99373.53;5337993;27;20030;-72
2023/10/28 07:04:05;;;;;;;5.88;1.63;;;;;;;12.27;100.00;99379.22;5337313;27;20038;-72
2023/10/28 07:06:39;;;;;;;6.85;1.40;;;;;;;12.28;100.00;99377.44;5336942;27;20498;-72
2023/10/28 07:09:11;;;;;;;3.90;1.60;;;;;;;12.28;100.00;99380.88;5337745;27;20035;-72
2023/10/28 07:11:42;;;;;;;4.28;1.33;;;;;;;12.33;100.00;99377.69;5338266;27;20472;-72
2023/10/28 07:14:14;;;;;;;6.72;1.40;;;;;;;12.35;100.00;99386.19;5327357;27;20550;-72
2023/10/28 07:16:48;;;;;;;5.25;1.52;;;;;;;12.36;100.00;99383.41;5326321;27;20438;-72
2023/10/28 07:19:19;;;;;;;;;;;;;;;13.06;100.00;99389.28;5322417;27;20493;-72
2023/10/28 07:21:51;;;;;;;4.07;1.38;;;;;;;12.46;100.00;99387.59;5336460;27;19911;-72
2023/10/28 07:24:23;;;;;;;4.55;1.25;;;;;;;12.44;100.00;99390.41;5334464;27;20109;-72
2023/10/28 07:26:55;;;;;;;6.22;1.60;;;;;;;12.44;100.00;99390.41;5336796;27;20024;-72
2023/10/28 07:29:27;;;;;;;7.25;1.92;;;;;;;12.44;100.00;99394.84;5337026;27;20027;-73
2023/10/28 07:32:00;;;;;;;3.75;1.25;;;;;;;12.49;100.00;99387.25;5333408;27;20031;-73
2023/10/28 07:34:32;;;;;;;5.72;1.88;;;;;;;12.50;100.00;99399.38;5334573;27;20027;-73
2023/10/28 07:37:04;;;;;;;8.17;1.67;;;;;;;12.54;100.00;99396.25;5335996;27;20035;-72
2023/10/28 07:39:36;;;;;;;3.78;1.08;;;;;;;12.55;100.00;99397.06;5335969;27;20037;-72
2023/10/28 07:42:08;;;;;;;4.05;1.60;;;;;;;12.55;100.00;99397.06;5337558;27;20038;-73
2023/10/28 07:44:40;;;;;;;7.25;1.55;;;;;;;12.63;100.00;99404.84;5311125;27;20107;-73
2023/10/28 07:47:12;;;;;;;5.10;1.30;;;;;;;12.68;100.00;99407.75;5337781;27;20023;-73
2023/10/28 07:49:43;;;;;;;6.35;1.73;;;;;;;12.70;100.00;99404.97;5340001;27;20490;-73
2023/10/28 07:52:15;;;;;;;4.60;1.52;;;;;;;12.72;100.00;99403.78;5338982;27;20497;-73
2023/10/28 07:54:47;;;;;;;5.35;1.70;;;;;;;12.77;100.00;99411.13;5339590;27;20448;-73
2023/10/28 07:57:19;;;;;;;6.07;1.77;;;;;;;12.81;100.00;99420.28;5321100;27;20053;-73
2023/10/28 07:59:53;;;;;;;4.40;1.33;;;;;;;12.85;100.00;99421.56;5338160;27;20106;-73
2023/10/28 08:02:24;;;;;;;5.32;1.67;;;;;;;12.86;100.00;99418.75;5340623;27;20023;-73
2023/10/28 08:04:57;;;;;;;4.90;1.63;;;;;;;12.96;100.00;99429.00;5337226;27;20138;-72
2023/10/28 08:07:29;;;;;;;5.97;1.50;;;;;;;13.06;100.00;99431.34;5338105;27;20022;-72
2023/10/28 08:10:01;;;;;;;6.07;1.70;;;;;;;13.06;100.00;99433.97;5333375;27;20039;-72
2023/10/28 08:12:34;;;;;;;6.22;2.05;;;;;;;13.14;100.00;99433.88;5333359;27;20035;-72
2023/10/28 08:15:07;;;;;;;5.45;1.52;;;;;;;13.15;100.00;99438.19;5339155;27;20026;-72
2023/10/28 08:17:41;;;;;;;4.70;1.90;;;;;;;13.25;100.00;99432.66;5337481;27;20022;-72
2023/10/28 08:20:17;;;;;;;5.43;1.60;;;;;;;13.30;100.00;99436.41;5337759;27;20026;-72
2023/10/28 08:22:49;;;;;;;8.43;1.73;;;;;;;13.41;100.00;99439.53;5338332;27;20042;-72
2023/10/28 08:25:22;;;;;;;6.80;1.80;;;;;;;13.41;100.00;99443.00;5338866;27;20019;-71
2023/10/28 08:27:54;;;;;;;5.72;1.50;;;;;;;13.47;100.00;99447.53;5336131;27;20420;-71
2023/10/28 08:30:26;;;;;;;5.95;1.80;;;;;;;13.46;100.00;99450.34;5338104;28;20027;-72
2023/10/28 08:32:58;;;;;;;6.88;1.58;;;;;;;13.53;100.00;99446.00;5339166;27;20496;-71
2023/10/28 08:35:30;;;;;;;5.45;1.88;;;;;;;13.51;100.00;99451.41;5342598;27;20110;-71
2023/10/28 08:38:05;;;;;;;6.35;2.13;;;;;;;13.54;100.00;99445.78;5336493;27;20032;-72
2023/10/28 08:40:37;;;;;;;5.28;1.67;;;;;;;13.60;100.00;99455.59;5337063;27;20031;-72
2023/10/28 08:43:09;;;;;;;6.10;1.88;;;;;;;13.63;100.00;99454.41;5321393;27;20035;-72
2023/10/28 08:45:42;;;;;;;4.53;1.58;;;;;;;13.64;100.00;99448.16;5341161;27;20023;-71
2023/10/28 08:48:15;;;;;;;6.55;2.08;;;;;;;13.72;100.00;99455.94;5340240;27;20035;-72
2023/10/28 08:50:52;;;;;;;5.38;1.45;;;;;;;13.83;100.00;99454.66;5339023;27;20622;-72
2023/10/28 08:53:24;;;;;;;8.48;1.73;;;;;;;13.85;100.00;99463.97;5298679;28;20048;-72
2023/10/28 08:55:57;;;;;;;6.87;1.60;;;;;;;13.85;100.00;99461.34;5295670;28;20482;-72
2023/10/28 08:58:29;;;;;;;6.90;1.60;;;;;;;13.83;100.00;99465.19;5297458;28;20381;-72
2023/10/28 09:01:01;;;;;;;3.95;1.60;;;;;;;13.93;100.00;99472.78;5297406;28;21349;-72
2023/10/28 09:03:37;;;;;;;6.30;1.60;;;;;;;13.98;100.00;99470.38;5296231;28;20035;-71
2023/10/28 09:06:09;;;;;;;7.07;1.80;;;;;;;13.99;100.00;99472.84;5288768;28;20405;-72
2023/10/28 09:08:41;;;;;;;5.68;1.83;;;;;;;14.03;100.00;99473.31;5296658;28;20043;-72
2023/10/28 09:11:13;;;;;;;4.38;1.50;;;;;;;14.10;100.00;99482.09;5296834;28;20030;-72
2023/10/28 09:13:45;;;;;;;6.15;1.60;;;;;;;14.12;100.00;99474.81;5298193;28;20869;-71
2023/10/28 09:16:17;;;;;;;5.25;1.60;;;;;;;14.20;100.00;99479.13;5298035;28;20039;-72
2023/10/28 09:18:49;;;;;;;5.20;1.80;;;;;;;14.33;100.00;99477.47;5296606;28;20039;-72
2023/10/28 09:21:22;;;;;;;5.85;1.92;;;;;;;14.38;100.00;99484.78;5298389;28;20034;-72
2023/10/28 09:24:00;;;;;;;9.15;1.63;;;;;;;14.57;100.00;99478.13;5297404;28;20030;-72
2023/10/28 09:26:32;;;;;;;6.28;1.70;;;;;;;14.52;100.00;99469.97;5296879;28;20036;-72
2023/10/28 09:29:04;;;;;;;7.15;1.65;;;;;;;14.62;100.00;99478.34;5296751;28;20028;-72
2023/10/28 09:31:37;;;;;;;7.03;1.70;;;;;;;14.69;100.00;99481.06;5296409;28;20030;-72
2023/10/28 09:34:11;;;;;;;5.70;1.90;;;;;;;14.75;100.00;99473.19;5288158;28;20047;-72
2023/10/28 09:36:43;;;;;;;4.65;1.95;;;;;;;14.70;100.00;99482.66;5298254;28;20039;-72
2023/10/28 09:39:15;;;;;;;4.95;1.73;;;;;;;14.67;100.00;99481.25;5297674;28;20031;-72
2023/10/28 09:41:47;;;;;;;6.97;1.83;;;;;;;14.67;100.00;99486.53;5295640;28;20071;-72
2023/10/28 09:44:20;;;;;;;6.80;1.88;;;;;;;14.69;100.00;99489.78;5295559;28;20028;-72
2023/10/28 09:47:00;;;;;;;5.60;1.88;;;;;;;14.90;100.00;99485.50;5297117;28;20044;-72
2023/10/28 09:49:32;;;;;;;5.30;1.45;;;;;;;14.71;100.00;99476.41;5296281;28;20046;-72
2023/10/28 09:52:10;;;;;;;6.00;1.73;;;;;;;14.75;100.00;99467.94;5315686;27;20054;-72
2023/10/28 09:54:43;;;;;;;3.70;1.35;;;;;;;14.68;100.00;99482.88;5339687;27;20035;-71
2023/10/28 09:57:15;;;;;;;7.10;1.43;;;;;;;14.66;100.00;99481.41;5338084;27;20035;-72
2023/10/28 09:59:50;;;;;;;5.15;1.55;;;;;;;14.66;100.00;99482.25;5336085;27;20035;-72
2023/10/28 10:02:40;;;;;;;5.15;1.65;;;;;;;14.89;100.00;99483.84;5332804;27;20038;-72
2023/10/28 10:05:17;;;;;;;7.53;1.73;;;;;;;14.88;100.00;99482.22;5338955;27;20031;-72
2023/10/28 10:07:49;;;;;;;4.85;1.45;;;;;;;14.75;100.00;99483.75;5338590;27;20058;-71
2023/10/28 10:10:21;;;;;;;5.25;1.55;;;;;;;14.90;100.00;99483.66;5338428;27;20106;-71
2023/10/28 10:13:02;;;;;;;6.68;1.55;;;;;;;15.13;100.00;99485.25;5336987;27;20027;-72
2023/10/28 10:15:38;;;;;;;6.13;1.60;;;;;;;14.98;100.00;99501.16;5339062;27;20035;-72
2023/10/28 10:18:21;;;;;;;6.55;1.75;;;;;;;15.04;100.00;99500.41;5340100;27;20034;-72
2023/10/28 10:21:04;;;;;;;6.78;1.60;;;;;;;15.16;100.00;99504.16;5338952;27;20035;-72
2023/10/28 10:23:54;;;;;;;4.82;1.35;;;;;;;15.35;100.00;99500.00;5337605;27;20023;-72
2023/10/28 10:26:28;;;;;;;9.52;2.28;;;;;;;15.11;100.00;99511.81;5339147;27;20027;-72
2023/10/28 10:29:03;;;;;;;5.22;1.77;;;;;;;15.14;100.00;99510.63;5319668;27;20470;-71
2023/10/28 10:31:36;;;;;;;4.60;1.17;;;;;;;15.09;100.00;99504.09;5338600;27;20046;-72
2023/10/28 10:34:09;;;;;;;4.05;1.48;;;;;;;15.12;100.00;99504.72;5341836;27;20027;-71
2023/10/28 10:36:42;;;;;;;;;;;;;;;15.84;100.00;99500.91;5340483;27;20041;-71
2023/10/28 10:39:16;;;;;;;4.78;1.40;;;;;;;15.21;100.00;99509.66;5338137;27;19918;-71
2023/10/28 10:41:52;;;;;;;5.55;1.80;;;;;;;15.06;100.00;99508.94;5339539;27;20019;-71
2023/10/28 10:44:31;;;;;;;6.45;1.80;;;;;;;15.11;100.00;99506.53;5338276;27;20023;-72
2023/10/28 10:47:08;;;;;;;5.35;1.85;;;;;;;15.08;100.00;99507.75;5337468;27;20476;-72
2023/10/28 10:49:40;;;;;;;9.27;2.17;;;;;;;14.97;100.00;99507.47;5339194;27;20023;-71
2023/10/28 10:52:12;;;;;;;5.50;1.83;;;;;;;14.96;100.00;99490.78;5338407;27;20058;-71
2023/10/28 10:54:43;;;;;;;7.07;1.95;;;;;;;15.12;100.00;99500.25;5334998;27;20027;-76
2023/10/28 10:57:15;;;;;;;8.18;2.13;;;;;;;15.29;100.00;99498.13;5338016;27;20546;-72
2023/10/28 10:59:47;;;;;;;8.02;2.15;;;;;;;15.31;100.00;99496.94;5338966;27;20575;-71
2023/10/28 11:02:19;;;;;;;6.37;1.63;;;;;;;15.52;100.00;99496.03;5338054;27;20058;-72
2023/10/28 11:04:51;;;;;;;6.75;1.80;;;;;;;15.63;100.00;99494.66;5335862;27;20037;-72
2023/10/28 11:07:24;;;;;;;5.72;1.90;;;;;;;15.67;100.00;99490.66;5338362;27;20388;-72
2023/10/28 11:09:56;;;;;;;5.78;1.95;;;;;;;15.70;100.00;99490.25;5338850;27;20031;-72
2023/10/28 11:12:28;;;;;;;7.63;2.00;;;;;;;15.70;100.00;99484.97;5334202;27;20126;-71
2023/10/28 11:15:00;;;;;;;10.63;2.67;;;;;;;15.82;100.00;99480.75;5335431;27;20027;-72
2023/10/28 11:17:32;;;;;;;10.02;2.30;;;;;;;15.91;100.00;99491.16;5336077;27;20023;-72
2023/10/28 11:20:05;;;;;;;5.55;2.00;;;;;;;15.91;100.00;99493.78;5336829;27;20035;-72
2023/10/28 11:22:39;;;;;;;5.93;2.10;;;;;;;15.88;100.00;99479.16;5318762;27;20511;-72
2023/10/28 11:25:11;;;;;;;8.43;2.00;;;;;;;15.94;100.00;99494.22;5336790;27;20050;-72
2023/10/28 11:27:43;;;;;;;8.38;2.58;;;;;;;16.05;100.00;99493.63;5314645;27;20034;-72
2023/10/28 11:30:16;;;;;;;10.88;2.67;;;;;;;16.16;100.00;99489.59;5336147;27;20046;-72
2023/10/28 11:32:51;;;;;;;8.25;2.58;;;;;;;16.21;100.00;99484.56;5335593;27;20057;-75
2023/10/28 11:35:24;;;;;;;6.93;2.20;;;;;;;16.22;100.00;99485.38;5334281;27;20037;-72
2023/10/28 11:37:56;;;;;;;8.02;2.40;;;;;;;16.12;100.00;99484.94;5338328;27;20027;-72
2023/10/28 11:40:29;;;;;;;8.73;2.50;;;;;;;16.03;100.00;99494.88;5336128;27;20031;-72
2023/10/28 11:43:05;;;;;;;8.98;2.10;;;;;;;16.16;100.00;99486.16;5319842;27;20288;-72
2023/10/28 11:45:37;;;;;;;7.70;2.45;;;;;;;16.09;100.00;99494.06;5336698;27;20031;-72
2023/10/28 11:48:08;;;;;;;9.40;2.97;;;;;;;16.24;100.00;99493.91;5322088;27;20490;-72
2023/10/28 11:50:40;;;;;;;9.07;1.92;;;;;;;16.27;100.00;99489.03;5309251;27;20130;-72
2023/10/28 11:53:15;;;;;;;9.52;2.20;;;;;;;16.49;100.00;99491.50;5334846;27;20042;-73